Time;durP1;ratioP1;P1;durP2;ratioP2;P2;SDS_P1;SDS_P2;PMS_P1;PMS_P2;Temp;Humidity;BMP_temperature;BMP_pressure;BME280_temperature;BME280_humidity;BME280_pressure;Samples;Min_cycle;Max_cycle;Signal;HPM_P1;HPM_P2
2022/01/28 00:00:19;;;;;;;19.88;10.00;;;;;;;2.32;89.84;97102.72;4971684;28;20058;-77
2022/01/28 00:02:56;;;;;;;18.10;9.27;;;;;;;2.35;89.93;97102.22;4972000;28;20057;-76
2022/01/28 00:05:24;;;;;;;17.58;9.25;;;;;;;2.37;89.31;97109.22;4971135;28;20577;-77
2022/01/28 00:07:52;;;;;;;18.98;10.18;;;;;;;2.35;89.32;97102.22;4971139;28;20062;-79
2022/01/28 00:10:19;;;;;;;19.40;9.38;;;;;;;2.41;89.42;97096.94;4971188;28;20058;-76
2022/01/28 00:13:04;;;;;;;17.17;9.27;;;;;;;2.37;89.10;97101.16;4971195;28;20055;-77
2022/01/28 00:15:36;;;;;;;16.40;8.50;;;;;;;2.33;89.06;97101.63;4971383;28;20526;-77
2022/01/28 00:37:58;;;;;;;14.93;8.23;;;;;;;2.35;89.65;97129.09;4970410;28;20174;-79
2022/01/28 00:40:14;;;;;;;14.70;7.68;;;;;;;2.33;90.10;97125.81;4970633;28;20133;-77
2022/01/28 00:42:41;;;;;;;14.45;8.43;;;;;;;2.26;90.84;97125.19;4970941;28;20432;-77
2022/01/28 00:45:08;;;;;;;15.50;8.57;;;;;;;2.20;91.29;97120.00;4970368;28;20058;-77
2022/01/28 00:47:35;;;;;;;17.15;8.93;;;;;;;2.17;91.44;97121.28;4971043;28;20053;-77
2022/01/28 00:50:01;;;;;;;16.27;9.18;;;;;;;2.16;91.75;97130.41;4970477;28;20065;-77
2022/01/28 00:52:29;;;;;;;14.23;8.05;;;;;;;2.11;91.80;97124.97;4971072;28;20063;-77
2022/01/28 00:54:56;;;;;;;15.90;9.05;;;;;;;2.09;91.89;97129.78;4970603;28;20054;-77
2022/01/28 00:57:22;;;;;;;16.08;8.40;;;;;;;2.09;91.83;97141.34;4970022;28;20061;-78
2022/01/28 00:59:48;;;;;;;14.38;8.48;;;;;;;2.13;91.51;97141.63;4970823;28;20414;-78
2022/01/28 01:02:15;;;;;;;17.35;8.80;;;;;;;2.04;91.80;97140.44;4970807;28;20359;-78
2022/01/28 01:04:42;;;;;;;14.40;8.00;;;;;;;2.03;92.30;97146.84;4970661;28;20078;-77
2022/01/28 01:07:08;;;;;;;13.93;7.70;;;;;;;1.94;92.44;97156.38;4969606;28;20565;-77
2022/01/28 01:09:36;;;;;;;18.05;9.00;;;;;;;1.94;92.99;97159.06;4970700;28;20046;-77
2022/01/28 01:12:03;;;;;;;14.13;8.18;;;;;;;1.86;93.02;97136.09;4970240;28;20502;-77
2022/01/28 01:14:30;;;;;;;15.90;8.48;;;;;;;1.80;93.36;97147.81;4970508;28;20058;-77
2022/01/28 01:17:07;;;;;;;15.20;7.90;;;;;;;1.76;93.57;97158.22;4970103;28;20054;-77
2022/01/28 01:19:38;;;;;;;15.13;8.82;;;;;;;1.75;93.72;97167.34;4970735;28;20043;-78
2022/01/28 01:22:07;;;;;;;16.13;8.80;;;;;;;1.78;94.05;97166.06;4969957;28;20518;-77
2022/01/28 01:24:36;;;;;;;16.70;8.80;;;;;;;1.86;93.62;97178.25;4970473;28;20466;-77
2022/01/28 01:27:05;;;;;;;16.17;9.25;;;;;;;1.84;93.15;97183.88;4969500;28;20547;-77
2022/01/28 01:29:32;;;;;;;15.70;8.88;;;;;;;1.86;93.33;97178.25;4970034;28;20498;-77
2022/01/28 01:32:03;;;;;;;16.17;8.55;;;;;;;1.88;92.76;97179.66;4969085;28;20417;-77
2022/01/28 01:34:30;;;;;;;16.65;9.32;;;;;;;1.92;92.69;97182.66;4969385;28;20526;-77
2022/01/28 01:36:56;;;;;;;16.67;9.02;;;;;;;1.92;92.63;97190.72;4969828;28;20166;-77
2022/01/28 01:39:25;;;;;;;16.67;9.13;;;;;;;1.91;92.37;97186.41;4969992;28;20046;-77
2022/01/28 01:41:57;;;;;;;16.02;8.85;;;;;;;1.94;92.03;97185.94;4970212;28;20418;-77
2022/01/28 01:44:37;;;;;;;15.52;8.77;;;;;;;1.93;91.61;97174.38;4968642;28;20051;-77
2022/01/28 01:52:39;;;;;;;16.42;8.85;;;;;;;1.96;91.31;97181.13;4970004;28;20062;-77
2022/01/28 01:55:07;;;;;;;15.75;9.20;;;;;;;2.00;90.83;97190.34;4969145;28;20058;-79
2022/01/28 01:57:34;;;;;;;14.13;7.75;;;;;;;2.00;90.71;97193.03;4969567;28;20073;-76
2022/01/28 02:00:02;;;;;;;14.40;7.88;;;;;;;2.04;90.06;97186.09;4969789;28;20051;-76
2022/01/28 02:02:29;;;;;;;13.77;8.10;;;;;;;2.03;89.82;97198.69;4969739;28;20651;-77
2022/01/28 02:04:56;;;;;;;12.43;7.43;;;;;;;2.02;89.97;97197.06;4969819;28;20051;-77
2022/01/28 02:07:23;;;;;;;13.73;7.35;;;;;;;2.03;89.32;97197.88;4968682;28;20055;-77
2022/01/28 02:09:49;;;;;;;14.38;7.60;;;;;;;2.04;89.17;97207.59;4969357;28;20062;-77
2022/01/28 02:12:16;;;;;;;16.48;8.02;;;;;;;2.06;89.33;97200.09;4969449;28;20540;-77
2022/01/28 02:14:42;;;;;;;13.23;7.28;;;;;;;2.11;89.24;97208.25;4968451;28;20051;-78
2022/01/28 02:17:10;;;;;;;16.05;7.63;;;;;;;2.14;88.38;97202.41;4968703;28;20054;-78
2022/01/28 02:19:39;;;;;;;14.63;6.57;;;;;;;2.15;88.40;97195.16;4969789;28;20497;-78
2022/01/28 02:22:09;;;;;;;12.43;6.28;;;;;;;2.19;88.08;97205.16;4968925;28;20085;-77
2022/01/28 02:24:41;;;;;;;14.68;7.28;;;;;;;2.15;88.30;97216.66;4969433;28;20062;-77
2022/01/28 02:27:09;;;;;;;10.35;6.03;;;;;;;2.06;88.53;97221.59;4968536;28;20089;-77
2022/01/28 02:29:36;;;;;;;13.10;6.90;;;;;;;2.07;88.68;97228.59;4969337;28;20061;-77
2022/01/28 02:32:08;;;;;;;12.35;7.00;;;;;;;2.02;88.17;97225.81;4968829;28;20137;-77
2022/01/28 02:34:36;;;;;;;15.85;7.75;;;;;;;1.97;88.46;97233.78;4969358;28;20050;-77
2022/01/28 02:37:04;;;;;;;14.45;7.90;;;;;;;1.97;88.26;97223.03;4968415;28;20528;-77
2022/01/28 02:39:31;;;;;;;12.38;6.70;;;;;;;1.95;88.25;97227.84;4969194;28;20777;-77
2022/01/28 02:42:05;;;;;;;14.73;7.65;;;;;;;1.95;87.92;97230.53;4969246;28;20050;-77
2022/01/28 02:44:48;;;;;;;13.73;7.00;;;;;;;1.93;88.24;97238.00;4968130;28;20073;-77
2022/01/28 02:47:17;;;;;;;12.90;7.38;;;;;;;1.93;87.78;97246.06;4968283;28;20142;-78
2022/01/28 02:49:45;;;;;;;12.93;7.13;;;;;;;1.96;88.02;97248.28;4968805;28;20137;-77
2022/01/28 02:52:19;;;;;;;13.90;6.93;;;;;;;1.99;87.81;97258.56;4968764;28;20152;-77
2022/01/28 02:54:49;;;;;;;12.75;7.25;;;;;;;2.02;87.39;97252.69;4968640;28;20069;-77
2022/01/28 02:57:22;;;;;;;12.10;6.80;;;;;;;2.03;87.36;97259.69;4968108;28;20054;-77
2022/01/28 02:59:49;;;;;;;12.55;6.90;;;;;;;2.00;87.04;97254.81;4969062;28;20113;-77
2022/01/28 03:02:15;;;;;;;12.32;6.22;;;;;;;1.98;87.45;97257.72;4968605;28;20056;-77
2022/01/28 03:07:25;;;;;;;11.23;6.65;;;;;;;1.90;87.65;97246.56;4965029;28;20502;-77
2022/01/28 03:10:24;;;;;;;12.02;6.35;;;;;;;1.90;87.79;97238.50;4968538;28;20065;-78
2022/01/28 03:13:01;;;;;;;13.10;7.05;;;;;;;1.92;87.33;97247.13;4967845;28;20085;-77
2022/01/28 03:15:27;;;;;;;12.50;6.53;;;;;;;1.95;87.70;97252.03;4968080;28;20050;-77
2022/01/28 03:18:06;;;;;;;12.27;6.15;;;;;;;1.95;86.98;97258.22;4968427;28;20051;-78
2022/01/28 03:20:39;;;;;;;11.82;6.30;;;;;;;1.93;86.82;97252.28;4968505;28;20490;-78
2022/01/28 03:23:06;;;;;;;14.48;6.47;;;;;;;1.98;86.72;97254.22;4968528;28;20113;-77
2022/01/28 03:25:36;;;;;;;9.60;5.82;;;;;;;1.99;86.48;97258.56;4968560;28;20062;-77
2022/01/28 03:28:02;;;;;;;11.18;5.57;;;;;;;2.01;86.32;97251.06;4967676;28;20148;-77
2022/01/28 03:30:29;;;;;;;11.32;6.28;;;;;;;2.02;86.08;97264.22;4968767;28;20047;-77
2022/01/28 03:32:55;;;;;;;11.60;5.93;;;;;;;2.06;86.06;97262.72;4968713;28;20066;-77
2022/01/28 03:35:22;;;;;;;13.25;6.00;;;;;;;2.05;85.67;97268.31;4967757;28;20050;-78
2022/01/28 03:37:49;;;;;;;14.82;6.13;;;;;;;2.08;85.99;97267.81;4968196;28;20074;-78
2022/01/28 03:40:19;;;;;;;10.45;5.88;;;;;;;2.07;85.98;97274.25;4967953;28;20073;-77
2022/01/28 03:42:48;;;;;;;10.88;5.82;;;;;;;2.12;86.23;97274.34;4965508;28;20133;-76
2022/01/28 03:45:14;;;;;;;14.38;6.30;;;;;;;2.09;86.21;97274.84;4967722;28;20182;-77
2022/01/28 03:47:41;;;;;;;11.38;6.85;;;;;;;2.09;86.53;97293.66;4967991;28;20607;-77
2022/01/28 03:50:08;;;;;;;9.35;5.47;;;;;;;2.09;87.08;97304.41;4967866;28;20079;-77
2022/01/28 03:52:34;;;;;;;10.05;5.97;;;;;;;2.06;87.57;97307.56;4968706;28;20058;-77
2022/01/28 03:55:01;;;;;;;14.57;7.03;;;;;;;2.02;88.01;97306.41;4967956;28;20507;-77
2022/01/28 03:57:27;;;;;;;14.63;7.13;;;;;;;1.92;88.66;97309.72;4971463;28;20058;-78
2022/01/28 03:59:55;;;;;;;12.13;6.70;;;;;;;1.95;88.91;97311.13;4971930;28;20058;-77
2022/01/28 04:02:26;;;;;;;14.13;7.20;;;;;;;1.89;88.82;97312.88;4971793;28;20058;-78
2022/01/28 04:05:52;;;;;;;15.45;8.05;;;;;;;1.86;88.92;97312.53;4971756;28;20544;-77
2022/01/28 04:13:25;;;;;;;14.65;7.95;;;;;;;1.83;88.85;97322.72;4969655;28;20053;-78
2022/01/28 04:16:28;;;;;;;14.65;7.18;;;;;;;1.86;89.14;97320.59;4971514;28;20062;-77
2022/01/28 04:18:40;;;;;;;18.60;8.85;;;;;;;1.83;89.07;97309.28;4971174;28;20182;-77
2022/01/28 04:21:07;;;;;;;14.10;6.75;;;;;;;1.82;88.83;97323.75;4971221;28;20079;-78
2022/01/28 04:23:33;;;;;;;14.38;7.65;;;;;;;1.86;89.08;97315.22;4971836;28;20050;-77
2022/01/28 04:26:00;;;;;;;16.60;7.80;;;;;;;1.90;88.88;97313.69;4971205;28;20058;-77
2022/01/28 04:28:26;;;;;;;13.98;7.43;;;;;;;1.91;88.63;97309.97;4971287;28;20051;-78
2022/01/28 04:30:54;;;;;;;14.82;7.95;;;;;;;1.92;88.32;97311.59;4971525;28;20054;-77
2022/01/28 04:33:21;;;;;;;13.52;7.25;;;;;;;1.94;88.15;97318.38;4970738;28;20055;-77
2022/01/28 04:35:50;;;;;;;13.80;7.15;;;;;;;1.96;88.18;97302.00;4971133;28;20058;-77
2022/01/28 04:38:28;;;;;;;14.20;6.82;;;;;;;1.97;87.61;97314.38;4970606;28;20110;-77
2022/01/28 04:41:03;;;;;;;13.05;6.60;;;;;;;2.00;87.49;97305.84;4971477;28;20061;-77
2022/01/28 04:43:36;;;;;;;14.52;7.03;;;;;;;2.01;87.02;97310.97;4969252;28;20422;-78
2022/01/28 04:46:10;;;;;;;12.65;6.47;;;;;;;1.99;86.84;97310.41;4970377;28;20090;-77
2022/01/28 04:48:42;;;;;;;12.70;6.28;;;;;;;2.03;86.73;97313.41;4971105;28;20055;-77
2022/01/28 04:51:17;;;;;;;14.57;6.83;;;;;;;2.05;86.33;97322.88;4970687;28;20053;-77
2022/01/28 04:53:57;;;;;;;14.75;6.18;;;;;;;2.06;85.80;97340.63;4971029;28;20564;-77
2022/01/28 04:56:36;;;;;;;12.38;6.22;;;;;;;2.14;85.91;97341.28;4970077;28;20513;-78
2022/01/28 05:04:51;;;;;;;11.38;6.47;;;;;;;2.12;85.23;97338.84;4967936;28;20073;-77
2022/01/28 05:07:33;;;;;;;11.80;6.15;;;;;;;2.18;85.07;97342.44;4968702;28;20133;-79
2022/01/28 05:15:51;;;;;;;11.23;6.45;;;;;;;2.19;85.45;97344.88;4969646;28;20613;-78
2022/01/28 05:26:37;;;;;;;17.33;8.15;;;;;;;1.77;89.51;97361.25;4969420;28;20141;-77
2022/01/28 05:29:04;;;;;;;12.90;6.55;;;;;;;1.78;89.91;97372.81;4969660;28;20050;-77
2022/01/28 05:31:31;;;;;;;16.60;7.47;;;;;;;1.80;89.97;97384.13;4970090;28;20057;-78
2022/01/28 05:33:59;;;;;;;17.80;8.38;;;;;;;1.66;90.04;97399.69;4970532;28;20054;-77
2022/01/28 05:36:26;;;;;;;17.50;8.43;;;;;;;1.56;90.40;97394.91;4969362;28;20047;-79
2022/01/28 05:38:53;;;;;;;17.90;8.57;;;;;;;1.51;90.52;97392.13;4970037;28;20141;-79
2022/01/28 05:41:19;;;;;;;17.85;8.80;;;;;;;1.50;90.90;97403.88;4969676;28;20050;-77
2022/01/28 05:43:46;;;;;;;17.90;8.75;;;;;;;1.50;91.50;97397.72;4968271;28;20051;-78
2022/01/28 05:46:13;;;;;;;18.73;9.18;;;;;;;1.48;91.35;97402.50;4969203;28;20047;-77
2022/01/28 05:48:39;;;;;;;19.70;9.55;;;;;;;1.47;92.05;97412.44;4969927;28;20057;-77
2022/01/28 05:51:07;;;;;;;17.45;8.73;;;;;;;1.42;91.98;97403.44;4969743;28;20047;-77
2022/01/28 05:53:34;;;;;;;16.58;8.98;;;;;;;1.39;92.50;97418.13;4970017;28;20051;-77
2022/01/28 05:56:00;;;;;;;18.70;8.95;;;;;;;1.33;91.93;97426.31;4969587;28;20050;-77
2022/01/28 05:58:27;;;;;;;15.45;7.95;;;;;;;1.15;91.73;97420.00;4969255;28;20049;-77
2022/01/28 06:00:53;;;;;;;16.33;8.73;;;;;;;1.09;92.71;97420.91;4970327;28;20059;-77
2022/01/28 06:03:20;;;;;;;21.30;9.02;;;;;;;1.10;93.38;97432.44;4969241;28;20054;-76
2022/01/28 06:05:48;;;;;;;15.48;8.15;;;;;;;1.04;93.77;97435.03;4969208;28;20053;-77
2022/01/28 06:08:15;;;;;;;17.50;6.97;;;;;;;1.12;93.78;97439.22;4968661;28;20537;-77
2022/01/28 06:10:42;;;;;;;13.85;6.57;;;;;;;1.05;94.07;97451.94;4969572;28;20080;-77
2022/01/28 06:13:11;;;;;;;12.15;6.20;;;;;;;1.10;93.75;97444.03;4967471;28;20065;-77
2022/01/28 06:15:40;;;;;;;11.32;5.85;;;;;;;1.07;93.66;97454.38;4969482;28;20141;-77
2022/01/28 06:18:07;;;;;;;10.07;5.60;;;;;;;1.08;93.49;97459.50;4968183;28;20097;-77
2022/01/28 06:20:34;;;;;;;13.50;6.93;;;;;;;1.11;93.22;97460.94;4969600;28;20057;-77
2022/01/28 06:23:00;;;;;;;10.90;6.28;;;;;;;1.15;93.28;97460.25;4969195;28;20062;-77
2022/01/28 06:25:28;;;;;;;15.18;7.55;;;;;;;1.16;92.72;97464.56;4969123;28;20046;-76
2022/01/28 06:27:55;;;;;;;15.38;6.95;;;;;;;1.20;92.72;97460.38;4968563;28;20054;-75
2022/01/28 06:30:22;;;;;;;13.43;6.95;;;;;;;1.24;92.49;97469.56;4968652;28;20047;-80
2022/01/28 06:32:49;;;;;;;14.77;7.32;;;;;;;1.22;92.72;97485.09;4969461;28;20055;-74
2022/01/28 06:35:15;;;;;;;18.63;8.13;;;;;;;1.23;93.06;97492.09;4968407;28;20051;-74
2022/01/28 06:37:44;;;;;;;15.80;8.32;;;;;;;1.27;93.13;97487.09;4968878;28;20054;-75
2022/01/28 06:40:13;;;;;;;17.25;8.63;;;;;;;1.30;93.66;97487.44;4968813;28;20061;-76
2022/01/28 06:42:41;;;;;;;16.77;8.70;;;;;;;1.36;93.45;97499.13;4967149;28;20054;-77
2022/01/28 06:45:08;;;;;;;14.85;8.27;;;;;;;1.41;93.18;97493.88;4968488;28;20070;-77
2022/01/28 06:47:35;;;;;;;16.45;7.80;;;;;;;1.41;92.89;97491.19;4968512;28;20426;-77
2022/01/28 06:50:04;;;;;;;18.55;7.97;;;;;;;1.39;92.27;97497.84;4968147;28;20762;-77
2022/01/28 06:52:31;;;;;;;17.30;8.10;;;;;;;1.41;92.08;97495.72;4968996;28;20055;-78
2022/01/28 06:54:58;;;;;;;14.43;7.60;;;;;;;1.39;91.86;97489.78;4968625;28;20065;-75
2022/01/28 06:57:24;;;;;;;16.33;7.95;;;;;;;1.39;91.82;97495.16;4967908;28;20055;-78
2022/01/28 06:59:52;;;;;;;15.50;7.43;;;;;;;1.38;91.46;97488.16;4967163;28;20058;-78
2022/01/28 07:02:19;;;;;;;15.93;7.85;;;;;;;1.35;91.13;97488.59;4967705;28;20058;-77
2022/01/28 07:04:45;;;;;;;14.93;7.10;;;;;;;1.38;91.17;97493.53;4967976;28;20573;-79
2022/01/28 07:07:11;;;;;;;16.67;8.25;;;;;;;1.40;91.31;97502.16;4967503;28;20047;-75
2022/01/28 07:09:38;;;;;;;14.40;6.75;;;;;;;1.42;91.01;97494.69;4967452;28;20054;-78
2022/01/28 07:12:06;;;;;;;15.18;7.07;;;;;;;1.44;90.73;97488.03;4968018;28;20046;-78
2022/01/28 07:14:32;;;;;;;18.52;7.55;;;;;;;1.46;90.51;97485.13;4968370;28;20051;-78
2022/01/28 07:17:00;;;;;;;12.85;6.90;;;;;;;1.45;89.92;97483.47;4967937;28;20058;-78
2022/01/28 07:19:26;;;;;;;14.57;6.68;;;;;;;1.47;89.83;97478.72;4968118;28;20051;-77
2022/01/28 07:21:53;;;;;;;12.30;7.38;;;;;;;1.51;89.53;97490.59;4968337;28;20757;-78
2022/01/28 07:24:19;;;;;;;15.55;7.93;;;;;;;1.54;89.28;97488.28;4968243;28;20050;-77
2022/01/28 07:26:46;;;;;;;12.57;6.80;;;;;;;1.57;88.80;97492.38;4967862;28;20055;-78
2022/01/28 07:29:13;;;;;;;16.65;6.13;;;;;;;1.61;88.48;97482.78;4967921;28;20058;-75
2022/01/28 07:31:41;;;;;;;13.45;6.50;;;;;;;1.55;88.46;97478.34;4971011;28;20101;-77
2022/01/28 07:34:09;;;;;;;13.57;6.53;;;;;;;1.48;88.98;97483.84;4971835;28;20050;-78
2022/01/28 07:36:36;;;;;;;15.45;7.35;;;;;;;1.45;89.36;97475.44;4971755;28;20089;-78
2022/01/28 07:39:06;;;;;;;13.30;6.43;;;;;;;1.40;89.63;97486.03;4971956;28;20061;-78
2022/01/28 07:41:33;;;;;;;11.18;6.05;;;;;;;1.38;90.15;97486.28;4971360;28;20577;-79
2022/01/28 07:44:00;;;;;;;11.90;6.43;;;;;;;1.37;90.34;97481.16;4972045;28;20046;-78
2022/01/28 07:46:26;;;;;;;11.07;6.80;;;;;;;1.36;90.74;97484.88;4971128;28;20049;-77
2022/01/28 07:48:53;;;;;;;13.00;6.30;;;;;;;1.36;91.38;97490.22;4971118;28;20055;-75
2022/01/28 07:51:21;;;;;;;11.77;6.63;;;;;;;1.39;91.61;97500.53;4971737;28;20505;-75
2022/01/28 07:53:47;;;;;;;11.63;6.55;;;;;;;1.40;91.79;97502.97;4971957;28;20055;-75
2022/01/28 07:56:14;;;;;;;12.15;6.15;;;;;;;1.36;92.04;97511.69;4970992;28;20079;-76
2022/01/28 07:58:41;;;;;;;13.93;5.90;;;;;;;1.28;92.18;97516.38;4971739;28;20055;-76
2022/01/28 08:01:08;;;;;;;12.73;6.05;;;;;;;1.32;92.56;97522.09;4971735;28;20051;-76
2022/01/28 08:03:34;;;;;;;14.80;6.38;;;;;;;1.34;92.22;97527.22;4971683;28;20146;-79
2022/01/28 08:06:00;;;;;;;12.77;6.10;;;;;;;1.37;92.43;97524.09;4970307;28;20046;-79
2022/01/28 08:08:30;;;;;;;12.68;6.70;;;;;;;1.30;92.36;97538.44;4971842;28;20046;-82
2022/01/28 08:10:56;;;;;;;15.23;7.03;;;;;;;1.34;92.41;97540.66;4971662;28;20058;-79
2022/01/28 08:13:23;;;;;;;14.32;6.68;;;;;;;1.27;92.43;97549.63;4971095;28;20054;-81
2022/01/28 08:15:49;;;;;;;11.77;6.68;;;;;;;1.30;92.55;97540.28;4971473;28;20532;-78
2022/01/28 08:18:16;;;;;;;11.52;6.40;;;;;;;1.31;92.24;97550.00;4970612;28;20055;-78
2022/01/28 08:20:43;;;;;;;13.60;6.43;;;;;;;1.35;92.33;97550.31;4971480;28;20053;-78
2022/01/28 08:23:10;;;;;;;12.35;6.43;;;;;;;1.36;92.17;97562.69;4971008;28;20110;-77
2022/01/28 08:25:37;;;;;;;11.35;6.28;;;;;;;1.38;91.70;97569.47;4971067;28;20058;-80
2022/01/28 08:28:05;;;;;;;11.82;6.28;;;;;;;1.42;91.44;97561.81;4970300;28;20058;-77
2022/01/28 08:30:37;;;;;;;11.80;6.22;;;;;;;1.45;91.27;97564.00;4971228;28;20058;-75
2022/01/28 08:33:04;;;;;;;12.32;6.68;;;;;;;1.48;91.45;97567.06;4971000;28;20122;-78
2022/01/28 08:35:34;;;;;;;11.32;5.75;;;;;;;1.48;91.28;97563.56;4970759;28;20058;-78
2022/01/28 08:38:00;;;;;;;12.80;5.95;;;;;;;1.48;91.10;97568.94;4970803;28;20057;-78
2022/01/28 08:40:29;;;;;;;14.63;6.78;;;;;;;1.52;90.83;97570.09;4970821;28;20490;-77
2022/01/28 08:42:57;;;;;;;12.20;6.35;;;;;;;1.54;90.36;97562.63;4970554;28;20141;-78
2022/01/28 08:45:23;;;;;;;12.30;6.28;;;;;;;1.60;90.21;97571.63;4970064;28;20047;-78
2022/01/28 08:47:50;;;;;;;13.30;7.13;;;;;;;1.60;90.22;97577.81;4970349;28;20050;-79
2022/01/28 08:50:16;;;;;;;11.23;6.45;;;;;;;1.62;90.07;97573.06;4970586;28;20054;-77
2022/01/28 08:52:46;;;;;;;11.95;6.03;;;;;;;1.58;89.80;97574.56;4970895;28;20051;-75
2022/01/28 08:55:13;;;;;;;15.65;6.60;;;;;;;1.63;89.83;97587.28;4970128;28;20056;-75
2022/01/28 08:57:43;;;;;;;14.85;6.70;;;;;;;1.71;89.53;97582.38;4970270;28;20067;-75
2022/01/28 09:00:12;;;;;;;14.55;7.75;;;;;;;1.78;89.44;97580.44;4970270;28;20123;-76
2022/01/28 09:02:39;;;;;;;14.40;6.28;;;;;;;1.83;88.43;97583.25;4971094;28;20415;-77
2022/01/28 09:05:06;;;;;;;12.50;6.75;;;;;;;1.87;87.78;97593.50;4970055;28;20054;-78
2022/01/28 09:07:32;;;;;;;12.13;6.47;;;;;;;1.94;87.37;97583.47;4970257;28;20055;-79
2022/01/28 09:10:04;;;;;;;12.15;5.97;;;;;;;1.98;86.80;97584.63;4970685;28;20053;-75
2022/01/28 09:12:38;;;;;;;15.52;6.03;;;;;;;1.98;86.19;97585.44;4970089;28;20057;-74
2022/01/28 09:15:06;;;;;;;13.13;5.63;;;;;;;2.02;85.75;97589.31;4969900;28;20046;-79
2022/01/28 09:17:34;;;;;;;13.60;6.00;;;;;;;2.05;85.79;97596.09;4970064;28;20058;-75
2022/01/28 09:20:02;;;;;;;14.90;5.35;;;;;;;2.05;85.08;97598.78;4970652;28;20051;-77
2022/01/28 09:22:28;;;;;;;11.80;5.78;;;;;;;2.05;84.52;97601.47;4970238;28;20079;-75
2022/01/28 09:24:55;;;;;;;11.05;5.30;;;;;;;2.22;85.42;97605.09;4970168;28;20077;-76
2022/01/28 09:27:21;;;;;;;10.32;5.25;;;;;;;2.55;84.23;97615.22;4969277;28;20054;-74
2022/01/28 09:29:48;;;;;;;10.30;4.93;;;;;;;2.61;81.53;97610.81;4970404;28;20058;-76
2022/01/28 09:32:16;;;;;;;8.55;4.40;;;;;;;2.56;81.29;97616.06;4969560;28;20069;-76
2022/01/28 09:34:44;;;;;;;11.98;5.00;;;;;;;2.57;81.15;97609.63;4970052;28;20473;-76
2022/01/28 09:37:11;;;;;;;10.32;4.82;;;;;;;2.59;81.39;97612.88;4969200;28;20058;-76
2022/01/28 09:39:42;;;;;;;9.70;4.55;;;;;;;2.52;81.02;97606.84;4969861;28;20065;-75
2022/01/28 09:42:13;;;;;;;10.13;4.75;;;;;;;2.49;81.02;97623.44;4969730;28;20082;-77
2022/01/28 09:44:39;;;;;;;11.05;4.40;;;;;;;2.37;81.17;97615.38;4969771;28;20098;-74
2022/01/28 09:47:06;;;;;;;8.18;4.32;;;;;;;2.28;81.32;97617.59;4968772;28;20050;-74
2022/01/28 09:49:33;;;;;;;9.40;4.05;;;;;;;2.28;81.33;97616.78;4969963;28;20057;-76
2022/01/28 09:52:01;;;;;;;15.85;4.78;;;;;;;2.33;81.52;97617.69;4970040;28;20138;-78
2022/01/28 09:54:27;;;;;;;11.45;4.60;;;;;;;2.34;80.23;97615.81;4968512;28;20051;-73
2022/01/28 09:56:54;;;;;;;13.73;4.57;;;;;;;2.40;81.22;97630.19;4969654;28;20054;-78
2022/01/28 09:59:20;;;;;;;9.20;4.38;;;;;;;2.42;81.06;97606.59;4969063;28;20051;-77
2022/01/28 10:01:48;;;;;;;9.45;3.72;;;;;;;2.41;80.32;97615.72;4969575;28;20058;-74
2022/01/28 10:04:17;;;;;;;11.77;4.72;;;;;;;2.40;80.36;97611.38;4969428;28;20055;-77
2022/01/28 10:06:44;;;;;;;11.48;4.55;;;;;;;2.36;80.46;97608.38;4968691;28;20051;-76
2022/01/28 10:09:13;;;;;;;14.95;4.70;;;;;;;2.37;81.40;97614.56;4968889;28;20055;-75
2022/01/28 10:11:42;;;;;;;11.18;4.03;;;;;;;2.39;79.96;97620.50;4969658;28;20058;-76
2022/01/28 10:14:13;;;;;;;13.02;4.05;;;;;;;2.46;80.29;97623.91;4967599;28;20051;-77
2022/01/28 10:16:40;;;;;;;7.63;3.90;;;;;;;2.42;78.99;97622.75;4969012;28;20058;-76
2022/01/28 10:19:07;;;;;;;15.00;4.88;;;;;;;2.44;80.23;97617.94;4968755;28;20046;-76
2022/01/28 10:21:36;;;;;;;9.48;3.90;;;;;;;2.49;79.91;97628.81;4969526;28;20051;-75
2022/01/28 10:24:13;;;;;;;10.50;4.32;;;;;;;2.51;80.18;97626.72;4968728;28;20043;-76
2022/01/28 10:26:43;;;;;;;10.90;4.35;;;;;;;2.55;80.49;97633.22;4968988;28;20694;-76
2022/01/28 10:29:13;;;;;;;7.25;4.03;;;;;;;2.52;80.80;97631.03;4968333;28;20055;-76
2022/01/28 10:31:56;;;;;;;9.65;3.88;;;;;;;2.33;82.97;97646.44;4969502;28;20054;-76
2022/01/28 10:34:28;;;;;;;14.00;5.50;;;;;;;2.26;84.21;97646.56;4966565;28;20051;-77
2022/01/28 10:37:14;;;;;;;13.60;5.28;;;;;;;2.18;85.24;97649.59;4967365;28;20066;-76
2022/01/28 10:39:48;;;;;;;14.20;5.75;;;;;;;2.19;85.18;97645.84;4968900;28;20417;-76
2022/01/28 10:42:16;;;;;;;12.98;4.97;;;;;;;2.23;85.65;97647.03;4968571;28;20046;-76
2022/01/28 10:44:58;;;;;;;10.63;5.32;;;;;;;2.33;85.60;97638.38;4968968;28;20062;-76
2022/01/28 10:47:37;;;;;;;8.10;4.45;;;;;;;2.28;85.72;97639.09;4967566;28;20129;-75
2022/01/28 10:50:18;;;;;;;11.80;5.15;;;;;;;2.42;85.92;97649.63;4968368;28;20051;-77
2022/01/28 10:52:45;;;;;;;9.63;4.65;;;;;;;2.46;84.24;97642.72;4969242;28;20054;-76
2022/01/28 10:55:18;;;;;;;8.90;4.50;;;;;;;2.49;84.24;97639.56;4967726;28;20058;-74
2022/01/28 10:57:56;;;;;;;9.98;4.15;;;;;;;2.51;82.42;97626.72;4968286;28;20133;-76
2022/01/28 11:00:25;;;;;;;7.70;4.22;;;;;;;2.58;82.21;97622.03;4968548;28;20074;-75
2022/01/28 11:02:53;;;;;;;10.80;4.38;;;;;;;2.60;82.46;97617.22;4968734;28;20055;-77
2022/01/28 11:05:20;;;;;;;7.97;4.43;;;;;;;2.66;80.93;97610.88;4967983;28;20051;-75
2022/01/28 11:07:46;;;;;;;8.85;4.10;;;;;;;2.73;80.49;97613.47;4968008;28;20205;-73
2022/01/28 11:10:13;;;;;;;11.65;3.88;;;;;;;2.72;80.04;97615.34;4968314;28;20051;-73
2022/01/28 11:12:41;;;;;;;10.13;4.10;;;;;;;2.76;80.19;97621.84;4968322;28;20520;-73
2022/01/28 11:15:08;;;;;;;7.10;3.40;;;;;;;2.70;80.22;97614.75;4968024;28;20066;-76
2022/01/28 11:17:36;;;;;;;12.85;4.35;;;;;;;2.72;79.49;97622.59;4968285;28;20510;-77
2022/01/28 11:20:03;;;;;;;7.65;3.70;;;;;;;2.65;80.12;97622.69;4968290;28;20089;-77
2022/01/28 11:22:46;;;;;;;10.40;3.58;;;;;;;2.61;80.54;97626.94;4968590;28;20050;-74
2022/01/28 11:25:35;;;;;;;11.25;4.35;;;;;;;2.61;81.00;97627.75;4968019;28;20113;-75
2022/01/28 11:28:07;;;;;;;10.82;3.53;;;;;;;2.64;81.51;97631.81;4968158;28;20064;-77
2022/01/28 11:30:34;;;;;;;7.43;3.83;;;;;;;2.62;80.48;97631.25;4968527;28;20433;-77
2022/01/28 11:33:04;;;;;;;8.63;4.03;;;;;;;2.66;80.96;97637.78;4968871;28;20051;-76
2022/01/28 11:35:35;;;;;;;9.50;4.05;;;;;;;2.70;81.40;97630.06;4968079;28;20051;-75
2022/01/28 11:38:04;;;;;;;8.15;3.72;;;;;;;2.70;81.30;97630.88;4967917;28;20498;-74
2022/01/28 11:40:45;;;;;;;14.13;4.72;;;;;;;2.70;81.97;97627.38;4968541;28;20054;-75
2022/01/28 11:43:21;;;;;;;11.63;4.40;;;;;;;2.51;82.33;97637.47;4967836;28;20046;-74
2022/01/28 11:45:48;;;;;;;8.35;3.97;;;;;;;2.34;83.47;97630.09;4968481;28;20055;-76
2022/01/28 11:48:14;;;;;;;10.82;4.43;;;;;;;2.25;83.86;97634.19;4967826;28;20057;-77
2022/01/28 11:50:51;;;;;;;9.68;4.72;;;;;;;2.25;84.33;97639.56;4968373;28;20054;-76
2022/01/28 11:53:22;;;;;;;9.85;5.10;;;;;;;2.19;84.97;97645.84;4967764;28;20513;-74
2022/01/28 11:56:01;;;;;;;11.30;4.45;;;;;;;2.18;85.01;97654.16;4968319;28;20076;-76
2022/01/28 11:58:52;;;;;;;8.50;3.90;;;;;;;2.14;85.90;97648.44;4968127;28;20065;-77
2022/01/28 12:01:23;;;;;;;12.82;5.00;;;;;;;2.11;86.00;97631.97;4967554;28;20504;-76
2022/01/28 12:03:49;;;;;;;9.15;5.20;;;;;;;2.14;87.02;97621.56;4967774;28;20065;-75
2022/01/28 12:06:17;;;;;;;11.02;4.80;;;;;;;2.17;86.91;97623.78;4967623;28;20063;-75
2022/01/28 12:08:45;;;;;;;15.32;4.90;;;;;;;2.19;86.38;97635.09;4968076;28;20051;-76
2022/01/28 12:11:13;;;;;;;15.70;5.68;;;;;;;2.19;85.75;97675.41;4967900;28;20159;-77
2022/01/28 12:14:03;;;;;;;6.97;4.10;;;;;;;1.99;85.32;97688.38;4967853;28;20109;-77
2022/01/28 12:16:32;;;;;;;9.55;2.53;;;;;;;1.46;86.63;97686.44;4968453;28;20082;-77
2022/01/28 12:19:01;;;;;;;6.88;2.75;;;;;;;1.08;88.06;97679.47;4971284;28;20050;-79
2022/01/28 12:21:29;;;;;;;6.82;1.95;;;;;;;0.83;89.38;97684.09;4971359;28;20062;-78
2022/01/28 12:24:32;;;;;;;6.32;2.10;;;;;;;0.71;90.22;97671.44;4971249;28;20210;-79
2022/01/28 12:27:01;;;;;;;8.68;2.10;;;;;;;0.65;90.15;97674.19;4951903;28;20059;-79
2022/01/28 12:29:31;;;;;;;8.13;2.63;;;;;;;0.66;90.43;97665.09;4959007;28;20054;-80
2022/01/28 12:31:59;;;;;;;10.70;2.00;;;;;;;0.68;90.43;97650.47;4971355;28;20501;-75
2022/01/28 12:34:27;;;;;;;6.18;1.85;;;;;;;0.73;90.28;97657.81;4970378;28;20074;-80
2022/01/28 12:36:57;;;;;;;8.82;1.70;;;;;;;0.74;89.90;97654.91;4971358;28;20066;-78